sensor_id;sensor_type;location;lat;lon;timestamp;P1;durP1;ratioP1;P2;durP2;ratioP2
10005;SDS011;5042;42.626;23.382;2022-08-01T00:01:30;1.33;;;1.33;;
10005;SDS011;5042;42.626;23.382;2022-08-01T00:03:56;2.83;;;1.90;;
10005;SDS011;5042;42.626;23.382;2022-08-01T00:06:23;1.55;;;1.45;;
10005;SDS011;5042;42.626;23.382;2022-08-01T00:08:50;1.33;;;1.30;;
10005;SDS011;5042;42.626;23.382;2022-08-01T00:11:17;1.77;;;1.42;;
10005;SDS011;5042;42.626;23.382;2022-08-01T00:13:44;2.15;;;1.42;;
10005;SDS011;5042;42.626;23.382;2022-08-01T00:16:10;1.95;;;1.30;;
10005;SDS011;5042;42.626;23.382;2022-08-01T00:18:39;1.40;;;1.30;;
10005;SDS011;5042;42.626;23.382;2022-08-01T00:21:05;1.35;;;1.25;;
10005;SDS011;5042;42.626;23.382;2022-08-01T00:23:32;1.48;;;1.40;;
10005;SDS011;5042;42.626;23.382;2022-08-01T00:25:59;1.33;;;1.00;;
10005;SDS011;5042;42.626;23.382;2022-08-01T00:28:26;1.10;;;1.10;;
10005;SDS011;5042;42.626;23.382;2022-08-01T00:30:53;1.00;;;1.00;;
10005;SDS011;5042;42.626;23.382;2022-08-01T00:33:19;2.63;;;1.40;;
10005;SDS011;5042;42.626;23.382;2022-08-01T00:35:47;1.00;;;1.00;;
10005;SDS011;5042;42.626;23.382;2022-08-01T00:38:14;3.20;;;3.00;;
10005;SDS011;5042;42.626;23.382;2022-08-01T00:40:41;3.40;;;3.13;;
10005;SDS011;5042;42.626;23.382;2022-08-01T00:43:08;4.60;;;4.10;;
10005;SDS011;5042;42.626;23.382;2022-08-01T00:45:35;4.13;;;3.83;;
10005;SDS011;5042;42.626;23.382;2022-08-01T00:48:02;4.47;;;4.07;;
10005;SDS011;5042;42.626;23.382;2022-08-01T00:50:29;5.55;;;4.45;;
10005;SDS011;5042;42.626;23.382;2022-08-01T00:52:57;5.45;;;4.95;;
10005;SDS011;5042;42.626;23.382;2022-08-01T00:55:25;4.70;;;4.22;;
10005;SDS011;5042;42.626;23.382;2022-08-01T00:57:52;5.78;;;5.28;;
10005;SDS011;5042;42.626;23.382;2022-08-01T01:00:19;5.13;;;4.50;;
10005;SDS011;5042;42.626;23.382;2022-08-01T01:02:47;5.22;;;4.65;;
10005;SDS011;5042;42.626;23.382;2022-08-01T01:05:14;4.95;;;4.55;;
10005;SDS011;5042;42.626;23.382;2022-08-01T01:07:43;5.13;;;4.63;;
10005;SDS011;5042;42.626;23.382;2022-08-01T01:10:15;5.03;;;4.63;;
10005;SDS011;5042;42.626;23.382;2022-08-01T01:12:47;5.22;;;4.72;;
10005;SDS011;5042;42.626;23.382;2022-08-01T01:15:20;5.18;;;4.68;;
10005;SDS011;5042;42.626;23.382;2022-08-01T01:17:51;4.72;;;4.32;;
10005;SDS011;5042;42.626;23.382;2022-08-01T01:20:22;4.50;;;4.13;;
10005;SDS011;5042;42.626;23.382;2022-08-01T01:22:57;8.73;;;4.75;;
10005;SDS011;5042;42.626;23.382;2022-08-01T01:25:40;7.68;;;4.68;;
10005;SDS011;5042;42.626;23.382;2022-08-01T01:28:15;4.53;;;4.07;;
10005;SDS011;5042;42.626;23.382;2022-08-01T01:30:55;5.65;;;4.40;;
10005;SDS011;5042;42.626;23.382;2022-08-01T01:33:25;4.80;;;4.35;;
10005;SDS011;5042;42.626;23.382;2022-08-01T01:35:57;4.40;;;3.97;;
10005;SDS011;5042;42.626;23.382;2022-08-01T01:38:28;4.75;;;3.90;;
10005;SDS011;5042;42.626;23.382;2022-08-01T01:41:00;4.70;;;4.30;;
10005;SDS011;5042;42.626;23.382;2022-08-01T01:43:30;4.72;;;4.18;;
10005;SDS011;5042;42.626;23.382;2022-08-01T01:45:59;4.47;;;4.07;;
10005;SDS011;5042;42.626;23.382;2022-08-01T01:48:28;4.57;;;4.05;;
10005;SDS011;5042;42.626;23.382;2022-08-01T01:50:55;5.10;;;4.22;;
10005;SDS011;5042;42.626;23.382;2022-08-01T01:53:23;3.70;;;3.50;;
10005;SDS011;5042;42.626;23.382;2022-08-01T01:55:53;4.53;;;4.13;;
10005;SDS011;5042;42.626;23.382;2022-08-01T01:58:21;3.83;;;3.53;;
10005;SDS011;5042;42.626;23.382;2022-08-01T02:00:50;3.90;;;3.50;;
10005;SDS011;5042;42.626;23.382;2022-08-01T02:03:19;4.50;;;3.30;;
10005;SDS011;5042;42.626;23.382;2022-08-01T02:05:48;3.27;;;2.97;;
10005;SDS011;5042;42.626;23.382;2022-08-01T02:08:17;3.72;;;3.38;;
10005;SDS011;5042;42.626;23.382;2022-08-01T02:10:44;3.67;;;3.37;;
10005;SDS011;5042;42.626;23.382;2022-08-01T02:13:26;3.00;;;2.80;;
10005;SDS011;5042;42.626;23.382;2022-08-01T02:15:53;2.92;;;2.72;;
10005;SDS011;5042;42.626;23.382;2022-08-01T02:18:22;2.73;;;2.53;;
10005;SDS011;5042;42.626;23.382;2022-08-01T02:20:48;2.67;;;2.47;;
10005;SDS011;5042;42.626;23.382;2022-08-01T02:23:18;2.45;;;2.15;;
10005;SDS011;5042;42.626;23.382;2022-08-01T02:25:48;2.40;;;2.20;;
10005;SDS011;5042;42.626;23.382;2022-08-01T02:28:17;2.00;;;1.90;;
10005;SDS011;5042;42.626;23.382;2022-08-01T02:30:53;3.03;;;1.80;;
10005;SDS011;5042;42.626;23.382;2022-08-01T02:33:24;1.97;;;1.87;;
10005;SDS011;5042;42.626;23.382;2022-08-01T02:35:58;2.13;;;2.00;;
10005;SDS011;5042;42.626;23.382;2022-08-01T02:38:28;1.85;;;1.75;;
10005;SDS011;5042;42.626;23.382;2022-08-01T02:41:00;2.42;;;1.90;;
10005;SDS011;5042;42.626;23.382;2022-08-01T02:43:31;6.82;;;1.92;;
10005;SDS011;5042;42.626;23.382;2022-08-01T02:46:03;1.97;;;1.87;;
10005;SDS011;5042;42.626;23.382;2022-08-01T02:48:35;2.17;;;1.87;;
10005;SDS011;5042;42.626;23.382;2022-08-01T02:51:04;1.70;;;1.60;;
10005;SDS011;5042;42.626;23.382;2022-08-01T02:53:34;1.50;;;1.40;;
10005;SDS011;5042;42.626;23.382;2022-08-01T02:56:03;1.70;;;1.60;;
10005;SDS011;5042;42.626;23.382;2022-08-01T02:58:32;2.10;;;1.90;;
10005;SDS011;5042;42.626;23.382;2022-08-01T03:01:02;2.15;;;1.73;;
10005;SDS011;5042;42.626;23.382;2022-08-01T03:03:32;1.90;;;1.80;;
10005;SDS011;5042;42.626;23.382;2022-08-01T03:06:01;1.75;;;1.65;;
10005;SDS011;5042;42.626;23.382;2022-08-01T03:08:29;2.00;;;1.70;;
10005;SDS011;5042;42.626;23.382;2022-08-01T03:10:57;1.83;;;1.73;;
10005;SDS011;5042;42.626;23.382;2022-08-01T03:13:26;1.80;;;1.70;;
10005;SDS011;5042;42.626;23.382;2022-08-01T03:15:55;2.00;;;1.80;;
10005;SDS011;5042;42.626;23.382;2022-08-01T03:18:24;1.90;;;1.80;;
10005;SDS011;5042;42.626;23.382;2022-08-01T03:20:54;1.83;;;1.70;;
10005;SDS011;5042;42.626;23.382;2022-08-01T03:23:22;2.93;;;1.93;;
10005;SDS011;5042;42.626;23.382;2022-08-01T03:25:50;2.00;;;1.90;;
10005;SDS011;5042;42.626;23.382;2022-08-01T03:28:19;2.67;;;1.90;;
10005;SDS011;5042;42.626;23.382;2022-08-01T03:30:48;2.10;;;1.90;;
10005;SDS011;5042;42.626;23.382;2022-08-01T03:33:16;2.13;;;2.03;;
10005;SDS011;5042;42.626;23.382;2022-08-01T03:35:45;3.53;;;2.10;;
10005;SDS011;5042;42.626;23.382;2022-08-01T03:38:16;2.08;;;1.98;;
10005;SDS011;5042;42.626;23.382;2022-08-01T03:40:47;2.07;;;1.97;;
10005;SDS011;5042;42.626;23.382;2022-08-01T03:43:16;1.93;;;1.73;;
10005;SDS011;5042;42.626;23.382;2022-08-01T03:45:49;2.00;;;1.80;;
10005;SDS011;5042;42.626;23.382;2022-08-01T03:48:18;2.40;;;2.00;;
10005;SDS011;5042;42.626;23.382;2022-08-01T03:50:50;3.00;;;2.20;;
10005;SDS011;5042;42.626;23.382;2022-08-01T03:53:20;2.30;;;2.20;;
10005;SDS011;5042;42.626;23.382;2022-08-01T03:55:49;1.95;;;1.83;;
10005;SDS011;5042;42.626;23.382;2022-08-01T03:58:17;1.97;;;1.87;;
10005;SDS011;5042;42.626;23.382;2022-08-01T04:00:44;2.13;;;2.03;;
10005;SDS011;5042;42.626;23.382;2022-08-01T04:03:12;2.40;;;1.87;;
10005;SDS011;5042;42.626;23.382;2022-08-01T04:05:40;2.07;;;1.97;;
10005;SDS011;5042;42.626;23.382;2022-08-01T04:08:07;2.00;;;1.90;;
10005;SDS011;5042;42.626;23.382;2022-08-01T04:10:35;2.07;;;1.97;;
10005;SDS011;5042;42.626;23.382;2022-08-01T04:13:03;2.10;;;2.00;;
10005;SDS011;5042;42.626;23.382;2022-08-01T04:15:30;2.10;;;1.90;;
10005;SDS011;5042;42.626;23.382;2022-08-01T04:17:56;2.22;;;1.90;;
10005;SDS011;5042;42.626;23.382;2022-08-01T04:20:23;2.50;;;1.80;;
10005;SDS011;5042;42.626;23.382;2022-08-01T04:22:50;1.80;;;1.70;;
10005;SDS011;5042;42.626;23.382;2022-08-01T04:25:19;1.65;;;1.60;;
10005;SDS011;5042;42.626;23.382;2022-08-01T04:27:50;1.90;;;1.80;;
10005;SDS011;5042;42.626;23.382;2022-08-01T04:30:19;2.25;;;1.77;;
10005;SDS011;5042;42.626;23.382;2022-08-01T04:32:49;2.42;;;2.17;;
10005;SDS011;5042;42.626;23.382;2022-08-01T04:35:20;3.28;;;1.92;;
10005;SDS011;5042;42.626;23.382;2022-08-01T04:37:48;2.45;;;2.28;;
10005;SDS011;5042;42.626;23.382;2022-08-01T04:40:17;5.80;;;2.53;;
10005;SDS011;5042;42.626;23.382;2022-08-01T04:42:46;6.05;;;2.10;;
10005;SDS011;5042;42.626;23.382;2022-08-01T04:45:15;2.10;;;1.90;;
10005;SDS011;5042;42.626;23.382;2022-08-01T04:47:42;2.40;;;2.20;;
10005;SDS011;5042;42.626;23.382;2022-08-01T04:50:10;3.95;;;2.05;;
10005;SDS011;5042;42.626;23.382;2022-08-01T04:52:37;3.47;;;2.40;;
10005;SDS011;5042;42.626;23.382;2022-08-01T04:55:07;2.25;;;2.10;;
10005;SDS011;5042;42.626;23.382;2022-08-01T04:57:36;3.92;;;2.08;;
10005;SDS011;5042;42.626;23.382;2022-08-01T05:00:06;2.47;;;2.28;;
10005;SDS011;5042;42.626;23.382;2022-08-01T05:02:37;2.38;;;2.05;;
10005;SDS011;5042;42.626;23.382;2022-08-01T05:05:04;3.17;;;1.90;;
10005;SDS011;5042;42.626;23.382;2022-08-01T05:07:31;2.08;;;1.85;;
10005;SDS011;5042;42.626;23.382;2022-08-01T05:09:58;2.15;;;1.83;;
10005;SDS011;5042;42.626;23.382;2022-08-01T05:12:26;2.28;;;1.90;;
10005;SDS011;5042;42.626;23.382;2022-08-01T05:14:53;3.28;;;1.90;;
10005;SDS011;5042;42.626;23.382;2022-08-01T05:17:20;2.33;;;2.15;;
10005;SDS011;5042;42.626;23.382;2022-08-01T05:19:48;1.75;;;1.65;;
10005;SDS011;5042;42.626;23.382;2022-08-01T05:22:15;2.50;;;1.95;;
10005;SDS011;5042;42.626;23.382;2022-08-01T05:24:42;2.38;;;2.17;;
10005;SDS011;5042;42.626;23.382;2022-08-01T05:27:09;2.00;;;1.90;;
10005;SDS011;5042;42.626;23.382;2022-08-01T05:29:36;1.90;;;1.80;;
10005;SDS011;5042;42.626;23.382;2022-08-01T05:32:03;1.90;;;1.80;;
10005;SDS011;5042;42.626;23.382;2022-08-01T05:34:30;1.52;;;1.42;;
10005;SDS011;5042;42.626;23.382;2022-08-01T05:36:58;2.00;;;1.80;;
10005;SDS011;5042;42.626;23.382;2022-08-01T05:39:25;2.63;;;1.67;;
10005;SDS011;5042;42.626;23.382;2022-08-01T05:41:52;1.92;;;1.83;;
10005;SDS011;5042;42.626;23.382;2022-08-01T05:44:18;1.80;;;1.70;;
10005;SDS011;5042;42.626;23.382;2022-08-01T05:46:45;2.65;;;2.05;;
10005;SDS011;5042;42.626;23.382;2022-08-01T05:49:12;3.58;;;1.75;;
10005;SDS011;5042;42.626;23.382;2022-08-01T05:51:39;1.98;;;1.88;;
10005;SDS011;5042;42.626;23.382;2022-08-01T05:54:07;2.30;;;1.70;;
10005;SDS011;5042;42.626;23.382;2022-08-01T05:56:34;1.67;;;1.58;;
10005;SDS011;5042;42.626;23.382;2022-08-01T05:59:01;2.03;;;1.80;;
10005;SDS011;5042;42.626;23.382;2022-08-01T06:01:28;1.52;;;1.45;;
10005;SDS011;5042;42.626;23.382;2022-08-01T06:03:54;1.70;;;1.60;;
10005;SDS011;5042;42.626;23.382;2022-08-01T06:06:21;5.15;;;2.22;;
10005;SDS011;5042;42.626;23.382;2022-08-01T06:08:48;1.60;;;1.50;;
10005;SDS011;5042;42.626;23.382;2022-08-01T06:11:16;1.40;;;1.30;;
10005;SDS011;5042;42.626;23.382;2022-08-01T06:13:43;1.38;;;1.33;;
10005;SDS011;5042;42.626;23.382;2022-08-01T06:16:10;1.15;;;1.15;;
10005;SDS011;5042;42.626;23.382;2022-08-01T06:18:37;1.63;;;1.50;;
10005;SDS011;5042;42.626;23.382;2022-08-01T06:21:03;1.50;;;1.40;;
10005;SDS011;5042;42.626;23.382;2022-08-01T07:27:25;2.85;;;1.67;;
10005;SDS011;5042;42.626;23.382;2022-08-01T07:29:52;1.77;;;1.67;;
10005;SDS011;5042;42.626;23.382;2022-08-01T07:32:18;1.33;;;1.33;;
10005;SDS011;5042;42.626;23.382;2022-08-01T07:34:45;1.67;;;1.35;;
10005;SDS011;5042;42.626;23.382;2022-08-01T07:37:12;2.00;;;1.73;;
10005;SDS011;5042;42.626;23.382;2022-08-01T07:39:39;1.92;;;1.83;;
10005;SDS011;5042;42.626;23.382;2022-08-01T07:42:06;1.77;;;1.67;;
10005;SDS011;5042;42.626;23.382;2022-08-01T07:44:34;1.50;;;1.40;;
10005;SDS011;5042;42.626;23.382;2022-08-01T07:47:01;1.40;;;1.40;;
10005;SDS011;5042;42.626;23.382;2022-08-01T07:49:29;1.52;;;1.50;;
10005;SDS011;5042;42.626;23.382;2022-08-01T07:51:55;1.50;;;1.40;;
10005;SDS011;5042;42.626;23.382;2022-08-01T07:54:22;1.90;;;1.70;;
10005;SDS011;5042;42.626;23.382;2022-08-01T07:56:52;1.70;;;1.60;;
10005;SDS011;5042;42.626;23.382;2022-08-01T07:59:19;1.50;;;1.40;;
10005;SDS011;5042;42.626;23.382;2022-08-01T08:01:49;1.70;;;1.60;;
10005;SDS011;5042;42.626;23.382;2022-08-01T08:04:16;1.60;;;1.50;;
10005;SDS011;5042;42.626;23.382;2022-08-01T08:06:43;1.42;;;1.33;;
10005;SDS011;5042;42.626;23.382;2022-08-01T08:09:12;3.42;;;1.50;;
10005;SDS011;5042;42.626;23.382;2022-08-01T08:11:39;1.60;;;1.50;;
10005;SDS011;5042;42.626;23.382;2022-08-01T08:14:08;2.25;;;1.60;;
10005;SDS011;5042;42.626;23.382;2022-08-01T08:16:34;3.35;;;1.75;;
10005;SDS011;5042;42.626;23.382;2022-08-01T08:19:03;1.88;;;1.77;;
10005;SDS011;5042;42.626;23.382;2022-08-01T08:21:31;2.00;;;1.65;;
10005;SDS011;5042;42.626;23.382;2022-08-01T08:23:58;1.70;;;1.70;;
10005;SDS011;5042;42.626;23.382;2022-08-01T08:26:50;1.48;;;1.45;;
10005;SDS011;5042;42.626;23.382;2022-08-01T08:29:19;2.80;;;1.73;;
10005;SDS011;5042;42.626;23.382;2022-08-01T08:31:47;1.70;;;1.60;;
10005;SDS011;5042;42.626;23.382;2022-08-01T08:34:15;1.60;;;1.50;;
10005;SDS011;5042;42.626;23.382;2022-08-01T08:36:42;1.95;;;1.85;;
10005;SDS011;5042;42.626;23.382;2022-08-01T08:39:09;1.30;;;1.30;;
10005;SDS011;5042;42.626;23.382;2022-08-01T08:41:36;1.60;;;1.50;;
10005;SDS011;5042;42.626;23.382;2022-08-01T08:44:03;1.90;;;1.80;;
10005;SDS011;5042;42.626;23.382;2022-08-01T08:46:31;1.65;;;1.55;;
10005;SDS011;5042;42.626;23.382;2022-08-01T08:48:59;1.77;;;1.67;;
10005;SDS011;5042;42.626;23.382;2022-08-01T08:51:30;1.70;;;1.60;;
10005;SDS011;5042;42.626;23.382;2022-08-01T08:53:58;1.58;;;1.48;;
10005;SDS011;5042;42.626;23.382;2022-08-01T08:56:26;1.30;;;1.30;;
10005;SDS011;5042;42.626;23.382;2022-08-01T08:58:55;1.80;;;1.70;;
10005;SDS011;5042;42.626;23.382;2022-08-01T09:01:23;1.45;;;1.38;;
10005;SDS011;5042;42.626;23.382;2022-08-01T09:03:50;1.60;;;1.50;;
10005;SDS011;5042;42.626;23.382;2022-08-01T09:06:17;1.63;;;1.33;;
10005;SDS011;5042;42.626;23.382;2022-08-01T09:08:45;1.60;;;1.50;;
10005;SDS011;5042;42.626;23.382;2022-08-01T09:11:12;1.48;;;1.40;;
10005;SDS011;5042;42.626;23.382;2022-08-01T09:13:39;2.13;;;1.65;;
10005;SDS011;5042;42.626;23.382;2022-08-01T09:16:06;1.30;;;1.30;;
10005;SDS011;5042;42.626;23.382;2022-08-01T09:18:34;1.55;;;1.45;;
10005;SDS011;5042;42.626;23.382;2022-08-01T09:21:11;1.60;;;1.50;;
10005;SDS011;5042;42.626;23.382;2022-08-01T09:23:40;1.65;;;1.55;;
10005;SDS011;5042;42.626;23.382;2022-08-01T09:26:11;1.33;;;1.33;;
10005;SDS011;5042;42.626;23.382;2022-08-01T09:28:40;1.67;;;1.58;;
10005;SDS011;5042;42.626;23.382;2022-08-01T09:31:07;1.55;;;1.45;;
10005;SDS011;5042;42.626;23.382;2022-08-01T09:36:19;1.75;;;1.33;;
10005;SDS011;5042;42.626;23.382;2022-08-01T09:38:47;1.63;;;1.52;;
10005;SDS011;5042;42.626;23.382;2022-08-01T09:41:16;1.70;;;1.60;;
10005;SDS011;5042;42.626;23.382;2022-08-01T09:43:47;1.50;;;1.40;;
10005;SDS011;5042;42.626;23.382;2022-08-01T09:46:15;1.60;;;1.50;;
10005;SDS011;5042;42.626;23.382;2022-08-01T09:48:54;1.95;;;1.48;;
10005;SDS011;5042;42.626;23.382;2022-08-01T09:51:27;1.75;;;1.65;;
10005;SDS011;5042;42.626;23.382;2022-08-01T09:53:55;1.98;;;1.88;;
10005;SDS011;5042;42.626;23.382;2022-08-01T09:56:23;1.60;;;1.50;;
10005;SDS011;5042;42.626;23.382;2022-08-01T09:58:51;1.85;;;1.63;;
10005;SDS011;5042;42.626;23.382;2022-08-01T10:01:20;1.60;;;1.50;;
10005;SDS011;5042;42.626;23.382;2022-08-01T10:03:47;1.63;;;1.52;;
10005;SDS011;5042;42.626;23.382;2022-08-01T10:06:30;1.48;;;1.40;;
10005;SDS011;5042;42.626;23.382;2022-08-01T10:08:57;1.67;;;1.58;;
10005;SDS011;5042;42.626;23.382;2022-08-01T10:11:25;2.00;;;1.70;;
10005;SDS011;5042;42.626;23.382;2022-08-01T10:13:54;1.80;;;1.70;;
10005;SDS011;5042;42.626;23.382;2022-08-01T10:16:22;1.90;;;1.80;;
10005;SDS011;5042;42.626;23.382;2022-08-01T10:18:50;2.47;;;1.70;;
10005;SDS011;5042;42.626;23.382;2022-08-01T10:21:19;1.73;;;1.70;;
10005;SDS011;5042;42.626;23.382;2022-08-01T10:23:46;1.95;;;1.80;;
10005;SDS011;5042;42.626;23.382;2022-08-01T10:26:14;2.00;;;1.90;;
10005;SDS011;5042;42.626;23.382;2022-08-01T10:28:43;1.63;;;1.55;;
10005;SDS011;5042;42.626;23.382;2022-08-01T10:31:14;2.03;;;1.92;;
10005;SDS011;5042;42.626;23.382;2022-08-01T10:33:44;2.20;;;2.00;;
10005;SDS011;5042;42.626;23.382;2022-08-01T10:36:11;1.73;;;1.63;;
10005;SDS011;5042;42.626;23.382;2022-08-01T10:38:38;1.63;;;1.60;;
10005;SDS011;5042;42.626;23.382;2022-08-01T10:41:06;2.90;;;1.70;;
10005;SDS011;5042;42.626;23.382;2022-08-01T10:43:32;1.63;;;1.52;;
10005;SDS011;5042;42.626;23.382;2022-08-01T10:46:01;1.70;;;1.60;;
10005;SDS011;5042;42.626;23.382;2022-08-01T10:48:30;1.63;;;1.52;;
10005;SDS011;5042;42.626;23.382;2022-08-01T10:51:04;1.67;;;1.58;;
10005;SDS011;5042;42.626;23.382;2022-08-01T10:53:32;1.60;;;1.50;;
10005;SDS011;5042;42.626;23.382;2022-08-01T10:55:59;1.60;;;1.50;;
10005;SDS011;5042;42.626;23.382;2022-08-01T10:58:28;1.40;;;1.40;;
10005;SDS011;5042;42.626;23.382;2022-08-01T11:04:02;1.90;;;1.80;;
10005;SDS011;5042;42.626;23.382;2022-08-01T11:09:30;1.40;;;1.40;;
10005;SDS011;5042;42.626;23.382;2022-08-01T11:12:05;1.48;;;1.40;;
10005;SDS011;5042;42.626;23.382;2022-08-01T11:17:55;1.58;;;1.48;;
10005;SDS011;5042;42.626;23.382;2022-08-01T11:20:22;1.60;;;1.52;;
10005;SDS011;5042;42.626;23.382;2022-08-01T11:31:42;1.80;;;1.70;;
10005;SDS011;5042;42.626;23.382;2022-08-01T11:34:10;1.60;;;1.50;;
10005;SDS011;5042;42.626;23.382;2022-08-01T11:36:37;1.70;;;1.60;;
10005;SDS011;5042;42.626;23.382;2022-08-01T11:39:10;1.60;;;1.50;;
10005;SDS011;5042;42.626;23.382;2022-08-01T11:41:41;1.58;;;1.48;;
10005;SDS011;5042;42.626;23.382;2022-08-01T11:44:10;1.40;;;1.40;;
10005;SDS011;5042;42.626;23.382;2022-08-01T11:46:54;1.70;;;1.60;;
10005;SDS011;5042;42.626;23.382;2022-08-01T11:49:32;1.90;;;1.83;;
10005;SDS011;5042;42.626;23.382;2022-08-01T11:52:10;1.92;;;1.83;;
10005;SDS011;5042;42.626;23.382;2022-08-01T11:54:39;1.90;;;1.80;;
10005;SDS011;5042;42.626;23.382;2022-08-01T11:57:08;1.75;;;1.65;;
10005;SDS011;5042;42.626;23.382;2022-08-01T11:59:37;1.75;;;1.65;;
10005;SDS011;5042;42.626;23.382;2022-08-01T12:02:14;1.90;;;1.80;;
10005;SDS011;5042;42.626;23.382;2022-08-01T12:04:48;1.80;;;1.70;;
10005;SDS011;5042;42.626;23.382;2022-08-01T12:07:16;1.95;;;1.85;;
10005;SDS011;5042;42.626;23.382;2022-08-01T12:09:44;2.58;;;2.40;;
10005;SDS011;5042;42.626;23.382;2022-08-01T12:12:11;2.20;;;2.10;;
10005;SDS011;5042;42.626;23.382;2022-08-01T12:14:43;1.90;;;1.80;;
10005;SDS011;5042;42.626;23.382;2022-08-01T12:17:10;1.90;;;1.80;;
10005;SDS011;5042;42.626;23.382;2022-08-01T12:19:37;2.00;;;1.80;;
10005;SDS011;5042;42.626;23.382;2022-08-01T12:22:11;2.78;;;2.25;;
10005;SDS011;5042;42.626;23.382;2022-08-01T12:24:40;1.70;;;1.60;;
10005;SDS011;5042;42.626;23.382;2022-08-01T12:27:08;2.55;;;2.35;;
10005;SDS011;5042;42.626;23.382;2022-08-01T12:29:38;2.00;;;1.90;;
10005;SDS011;5042;42.626;23.382;2022-08-01T12:32:21;2.45;;;2.20;;
10005;SDS011;5042;42.626;23.382;2022-08-01T12:34:49;2.00;;;1.90;;
10005;SDS011;5042;42.626;23.382;2022-08-01T12:37:18;1.77;;;1.67;;
10005;SDS011;5042;42.626;23.382;2022-08-01T12:39:45;2.38;;;2.20;;
10005;SDS011;5042;42.626;23.382;2022-08-01T12:42:13;2.03;;;1.92;;
10005;SDS011;5042;42.626;23.382;2022-08-01T12:44:40;2.38;;;2.25;;
10005;SDS011;5042;42.626;23.382;2022-08-01T12:47:10;2.20;;;2.10;;
10005;SDS011;5042;42.626;23.382;2022-08-01T12:49:38;2.33;;;2.20;;
10005;SDS011;5042;42.626;23.382;2022-08-01T12:52:07;2.55;;;2.03;;
10005;SDS011;5042;42.626;23.382;2022-08-01T12:57:29;2.47;;;2.28;;
10005;SDS011;5042;42.626;23.382;2022-08-01T13:00:05;2.30;;;2.20;;
10005;SDS011;5042;42.626;23.382;2022-08-01T13:02:34;2.63;;;2.00;;
10005;SDS011;5042;42.626;23.382;2022-08-01T13:05:01;2.13;;;2.03;;
10005;SDS011;5042;42.626;23.382;2022-08-01T13:07:35;2.00;;;1.90;;
10005;SDS011;5042;42.626;23.382;2022-08-01T13:10:10;2.00;;;1.90;;
10005;SDS011;5042;42.626;23.382;2022-08-01T13:12:38;2.28;;;2.08;;
10005;SDS011;5042;42.626;23.382;2022-08-01T13:15:18;2.03;;;1.92;;
10005;SDS011;5042;42.626;23.382;2022-08-01T13:17:48;2.20;;;2.10;;
10005;SDS011;5042;42.626;23.382;2022-08-01T13:20:22;2.13;;;1.90;;
10005;SDS011;5042;42.626;23.382;2022-08-01T13:22:53;2.28;;;2.13;;
10005;SDS011;5042;42.626;23.382;2022-08-01T13:25:22;2.05;;;1.95;;
10005;SDS011;5042;42.626;23.382;2022-08-01T13:27:48;1.95;;;1.83;;
10005;SDS011;5042;42.626;23.382;2022-08-01T13:30:16;2.00;;;1.90;;
10005;SDS011;5042;42.626;23.382;2022-08-01T13:32:56;2.00;;;1.90;;
10005;SDS011;5042;42.626;23.382;2022-08-01T13:35:24;2.00;;;1.90;;
10005;SDS011;5042;42.626;23.382;2022-08-01T13:37:51;2.03;;;1.92;;
10005;SDS011;5042;42.626;23.382;2022-08-01T13:40:24;1.90;;;1.80;;
10005;SDS011;5042;42.626;23.382;2022-08-01T13:42:53;2.08;;;1.98;;
10005;SDS011;5042;42.626;23.382;2022-08-01T13:45:21;2.20;;;2.10;;
10005;SDS011;5042;42.626;23.382;2022-08-01T13:47:48;2.00;;;1.90;;
10005;SDS011;5042;42.626;23.382;2022-08-01T13:50:15;2.22;;;2.13;;
10005;SDS011;5042;42.626;23.382;2022-08-01T13:52:42;2.30;;;2.20;;
10005;SDS011;5042;42.626;23.382;2022-08-01T13:55:08;2.00;;;1.90;;
10005;SDS011;5042;42.626;23.382;2022-08-01T13:57:37;2.03;;;1.92;;
10005;SDS011;5042;42.626;23.382;2022-08-01T14:00:04;2.20;;;2.08;;
10005;SDS011;5042;42.626;23.382;2022-08-01T14:02:34;2.00;;;1.90;;
10005;SDS011;5042;42.626;23.382;2022-08-01T14:05:00;1.95;;;1.85;;
10005;SDS011;5042;42.626;23.382;2022-08-01T14:07:27;2.45;;;2.22;;
10005;SDS011;5042;42.626;23.382;2022-08-01T14:09:54;2.22;;;2.13;;
10005;SDS011;5042;42.626;23.382;2022-08-01T14:12:21;2.28;;;2.17;;
10005;SDS011;5042;42.626;23.382;2022-08-01T14:14:50;2.50;;;2.30;;
10005;SDS011;5042;42.626;23.382;2022-08-01T14:17:16;2.42;;;2.20;;
10005;SDS011;5042;42.626;23.382;2022-08-01T14:19:43;2.20;;;2.10;;
10005;SDS011;5042;42.626;23.382;2022-08-01T14:22:10;2.38;;;2.20;;
10005;SDS011;5042;42.626;23.382;2022-08-01T14:24:36;1.98;;;1.88;;
10005;SDS011;5042;42.626;23.382;2022-08-01T14:27:03;2.35;;;2.22;;
10005;SDS011;5042;42.626;23.382;2022-08-01T14:29:30;1.92;;;1.83;;
10005;SDS011;5042;42.626;23.382;2022-08-01T14:31:58;2.08;;;1.98;;
10005;SDS011;5042;42.626;23.382;2022-08-01T14:34:25;2.45;;;1.90;;
10005;SDS011;5042;42.626;23.382;2022-08-01T14:36:52;3.40;;;1.95;;
10005;SDS011;5042;42.626;23.382;2022-08-01T14:39:19;1.83;;;1.73;;
10005;SDS011;5042;42.626;23.382;2022-08-01T14:41:46;1.80;;;1.70;;
10005;SDS011;5042;42.626;23.382;2022-08-01T14:44:13;2.00;;;1.90;;
10005;SDS011;5042;42.626;23.382;2022-08-01T14:46:39;2.47;;;2.28;;
10005;SDS011;5042;42.626;23.382;2022-08-01T14:49:10;2.28;;;2.17;;
10005;SDS011;5042;42.626;23.382;2022-08-01T14:51:37;1.98;;;1.88;;
10005;SDS011;5042;42.626;23.382;2022-08-01T14:54:04;2.28;;;2.13;;
10005;SDS011;5042;42.626;23.382;2022-08-01T14:56:31;1.95;;;1.85;;
10005;SDS011;5042;42.626;23.382;2022-08-01T14:58:58;2.25;;;2.15;;
10005;SDS011;5042;42.626;23.382;2022-08-01T15:01:25;2.00;;;1.90;;
10005;SDS011;5042;42.626;23.382;2022-08-01T15:03:51;2.05;;;1.95;;
10005;SDS011;5042;42.626;23.382;2022-08-01T15:06:20;2.20;;;1.92;;
10005;SDS011;5042;42.626;23.382;2022-08-01T15:08:46;2.03;;;1.92;;
10005;SDS011;5042;42.626;23.382;2022-08-01T15:11:13;2.15;;;2.05;;
10005;SDS011;5042;42.626;23.382;2022-08-01T15:13:40;2.10;;;2.00;;
10005;SDS011;5042;42.626;23.382;2022-08-01T15:16:07;1.83;;;1.73;;
10005;SDS011;5042;42.626;23.382;2022-08-01T15:18:33;1.90;;;1.80;;
10005;SDS011;5042;42.626;23.382;2022-08-01T15:21:00;2.88;;;2.08;;
10005;SDS011;5042;42.626;23.382;2022-08-01T15:23:29;2.00;;;1.90;;
10005;SDS011;5042;42.626;23.382;2022-08-01T15:25:56;2.10;;;1.90;;
10005;SDS011;5042;42.626;23.382;2022-08-01T15:28:23;2.30;;;1.90;;
10005;SDS011;5042;42.626;23.382;2022-08-01T15:30:49;2.00;;;1.90;;
10005;SDS011;5042;42.626;23.382;2022-08-01T15:33:16;1.90;;;1.80;;
10005;SDS011;5042;42.626;23.382;2022-08-01T15:35:43;1.70;;;1.65;;
10005;SDS011;5042;42.626;23.382;2022-08-01T15:38:10;1.58;;;1.58;;
10005;SDS011;5042;42.626;23.382;2022-08-01T15:40:38;1.52;;;1.52;;
10005;SDS011;5042;42.626;23.382;2022-08-01T15:43:04;4.90;;;1.60;;
10005;SDS011;5042;42.626;23.382;2022-08-01T15:45:31;1.90;;;1.80;;
10005;SDS011;5042;42.626;23.382;2022-08-01T15:47:58;2.00;;;1.90;;
10005;SDS011;5042;42.626;23.382;2022-08-01T15:50:25;2.75;;;2.00;;
10005;SDS011;5042;42.626;23.382;2022-08-01T15:52:51;1.77;;;1.67;;
10005;SDS011;5042;42.626;23.382;2022-08-01T15:55:18;1.65;;;1.58;;
10005;SDS011;5042;42.626;23.382;2022-08-01T15:57:46;1.98;;;1.88;;
10005;SDS011;5042;42.626;23.382;2022-08-01T16:00:13;2.17;;;2.08;;
10005;SDS011;5042;42.626;23.382;2022-08-01T16:02:40;1.70;;;1.60;;
10005;SDS011;5042;42.626;23.382;2022-08-01T16:05:07;1.73;;;1.63;;
10005;SDS011;5042;42.626;23.382;2022-08-01T16:07:35;1.63;;;1.52;;
10005;SDS011;5042;42.626;23.382;2022-08-01T16:10:02;1.88;;;1.77;;
10005;SDS011;5042;42.626;23.382;2022-08-01T16:12:29;1.88;;;1.60;;
10005;SDS011;5042;42.626;23.382;2022-08-01T16:14:57;1.90;;;1.80;;
10005;SDS011;5042;42.626;23.382;2022-08-01T16:17:24;1.83;;;1.73;;
10005;SDS011;5042;42.626;23.382;2022-08-01T16:19:51;1.83;;;1.73;;
10005;SDS011;5042;42.626;23.382;2022-08-01T16:22:17;2.28;;;2.08;;
10005;SDS011;5042;42.626;23.382;2022-08-01T16:24:44;1.80;;;1.70;;